Time,TemperatureF,DewpointF,PressureIn,WindDirection,WindDirectionDegrees,WindSpeedMPH,WindSpeedGustMPH,Humidity,HourlyPrecipIn,Conditions,Clouds,dailyrainin,SoftwareType,DateUTC
2013-10-21 00:13:00,40.6,35.0,29.98,NNE,31,0.0,2.0,79,0.00,,,0.00,weatherlink.com 1.10,2013-10-21 04:13:00,
2013-10-21 00:28:00,40.9,34.0,29.98,NW,306,0.0,4.0,77,0.00,,,0.00,weatherlink.com 1.10,2013-10-21 04:28:00,
2013-10-21 00:43:00,40.7,34.0,29.98,NW,306,1.0,2.0,77,0.00,,,0.00,weatherlink.com 1.10,2013-10-21 04:43:00,
2013-10-21 00:58:00,40.1,34.0,29.98,South,187,0.0,4.0,78,0.00,,,0.00,weatherlink.com 1.10,2013-10-21 04:58:00,
2013-10-21 01:13:00,40.3,34.0,29.98,South,182,1.0,2.0,78,0.00,,,0.00,weatherlink.com 1.10,2013-10-21 05:13:00,
2013-10-21 01:28:00,40.2,34.0,29.98,West,266,0.0,3.0,78,0.00,,,0.00,weatherlink.com 1.10,2013-10-21 05:28:00,
2013-10-21 01:43:00,40.5,34.0,29.99,NNE,31,1.0,4.0,78,0.00,,,0.00,weatherlink.com 1.10,2013-10-21 05:43:00,
2013-10-21 01:58:00,39.5,34.0,29.99,NNE,31,1.0,2.0,79,0.00,,,0.00,weatherlink.com 1.10,2013-10-21 05:58:00,
2013-10-21 02:13:00,38.9,33.0,30.00,NNE,32,3.0,4.0,80,0.00,,,0.00,weatherlink.com 1.10,2013-10-21 06:13:00,
2013-10-21 02:28:00,38.4,33.0,30.00,NNE,32,1.0,2.0,81,0.00,,,0.00,weatherlink.com 1.10,2013-10-21 06:28:00,
2013-10-21 02:43:00,38.5,33.0,30.00,NNE,31,2.0,4.0,81,0.00,,,0.00,weatherlink.com 1.10,2013-10-21 06:43:00,
2013-10-21 02:58:00,38.6,33.0,30.00,NE,36,1.0,3.0,81,0.00,,,0.00,weatherlink.com 1.10,2013-10-21 06:58:00,
2013-10-21 03:13:00,37.7,33.0,30.00,NE,35,2.0,4.0,82,0.00,,,0.00,weatherlink.com 1.10,2013-10-21 07:13:00,
2013-10-21 03:28:00,38.9,34.0,30.01,North,5,2.0,4.0,81,0.00,,,0.00,weatherlink.com 1.10,2013-10-21 07:28:00,
2013-10-21 03:43:00,38.7,33.0,30.01,North,5,1.0,5.0,81,0.00,,,0.00,weatherlink.com 1.10,2013-10-21 07:43:00,
2013-10-21 03:58:00,38.5,33.0,30.01,North,355,1.0,4.0,81,0.00,,,0.00,weatherlink.com 1.10,2013-10-21 07:58:00,
2013-10-21 04:13:00,37.9,33.0,30.01,North,355,1.0,2.0,83,0.00,,,0.00,weatherlink.com 1.10,2013-10-21 08:13:00,
2013-10-21 04:28:00,38.1,33.0,30.02,North,355,1.0,4.0,83,0.00,,,0.00,weatherlink.com 1.10,2013-10-21 08:28:00,
2013-10-21 04:43:00,38.9,34.0,30.02,North,5,1.0,5.0,82,0.00,,,0.00,weatherlink.com 1.10,2013-10-21 08:43:00,
2013-10-21 04:58:00,39.3,34.0,30.02,NNE,22,0.0,3.0,81,0.00,,,0.00,weatherlink.com 1.10,2013-10-21 08:58:00,
2013-10-21 05:13:00,39.9,35.0,30.02,North,11,2.0,4.0,82,0.00,,,0.00,weatherlink.com 1.10,2013-10-21 09:13:00,
2013-10-21 05:28:00,40.9,35.0,30.02,NE,40,1.0,5.0,79,0.00,,,0.00,weatherlink.com 1.10,2013-10-21 09:28:00,
2013-10-21 05:43:00,42.2,36.0,30.02,NNE,28,0.0,3.0,78,0.00,,,0.00,weatherlink.com 1.10,2013-10-21 09:43:00,
2013-10-21 05:58:00,42.6,36.0,30.02,North,355,3.0,4.0,76,0.00,,,0.00,weatherlink.com 1.10,2013-10-21 09:58:00,
2013-10-21 06:13:00,42.2,35.0,30.02,ESE,123,1.0,5.0,77,0.00,,,0.00,weatherlink.com 1.10,2013-10-21 10:13:00,
2013-10-21 06:28:00,42.0,36.0,30.03,ESE,123,2.0,2.0,78,0.00,,,0.00,weatherlink.com 1.10,2013-10-21 10:28:00,
2013-10-21 06:43:00,41.2,35.0,30.03,NNE,18,4.0,6.0,78,0.00,,,0.00,weatherlink.com 1.10,2013-10-21 10:43:00,
2013-10-21 06:58:00,40.1,34.0,30.04,North,9,2.0,4.0,79,0.00,,,0.00,weatherlink.com 1.10,2013-10-21 10:58:00,
2013-10-21 07:13:00,39.8,34.0,30.05,North,355,4.0,4.0,81,0.00,,,0.00,weatherlink.com 1.10,2013-10-21 11:13:00,
2013-10-21 07:28:00,39.6,35.0,30.05,North,9,2.0,4.0,82,0.00,,,0.00,weatherlink.com 1.10,2013-10-21 11:28:00,
2013-10-21 07:44:00,40.5,35.0,30.05,NE,55,2.0,6.0,81,0.00,,,0.00,weatherlink.com 1.10,2013-10-21 11:44:00,
2013-10-21 07:59:00,41.3,36.0,30.05,North,5,2.0,4.0,80,0.00,,,0.00,weatherlink.com 1.10,2013-10-21 11:59:00,
2013-10-21 08:14:00,41.5,36.0,30.05,NE,53,1.0,4.0,80,0.00,,,0.00,weatherlink.com 1.10,2013-10-21 12:14:00,
2013-10-21 08:29:00,43.4,36.0,30.06,NE,46,3.0,5.0,76,0.00,,,0.00,weatherlink.com 1.10,2013-10-21 12:29:00,
2013-10-21 08:44:00,44.4,36.0,30.06,North,355,4.0,6.0,73,0.00,,,0.00,weatherlink.com 1.10,2013-10-21 12:44:00,
2013-10-21 08:59:00,45.2,36.0,30.06,NE,34,1.0,4.0,71,0.00,,,0.00,weatherlink.com 1.10,2013-10-21 12:59:00,
2013-10-21 09:14:00,46.2,37.0,30.06,North,355,3.0,5.0,71,0.00,,,0.00,weatherlink.com 1.10,2013-10-21 13:14:00,
2013-10-21 09:29:00,47.4,37.0,30.06,North,5,3.0,5.0,67,0.00,,,0.00,weatherlink.com 1.10,2013-10-21 13:29:00,
2013-10-21 09:44:00,49.1,37.0,30.05,NNE,12,1.0,7.0,64,0.00,,,0.00,weatherlink.com 1.10,2013-10-21 13:44:00,
2013-10-21 09:59:00,50.6,37.0,30.06,NE,51,1.0,7.0,61,0.00,,,0.00,weatherlink.com 1.10,2013-10-21 13:59:00,
2013-10-21 10:14:00,51.5,37.0,30.05,SW,221,3.0,5.0,58,0.00,,,0.00,weatherlink.com 1.10,2013-10-21 14:14:00,
2013-10-21 10:29:00,52.8,37.0,30.05,SSE,149,4.0,12.0,55,0.00,,,0.00,weatherlink.com 1.10,2013-10-21 14:29:00,
2013-10-21 10:44:00,53.2,37.0,30.05,SSW,196,6.0,12.0,55,0.00,,,0.00,weatherlink.com 1.10,2013-10-21 14:44:00,
2013-10-21 10:59:00,53.9,37.0,30.04,WSW,242,4.0,10.0,53,0.00,,,0.00,weatherlink.com 1.10,2013-10-21 14:59:00,
2013-10-21 11:14:00,54.0,38.0,30.03,SW,232,7.0,13.0,55,0.00,,,0.00,weatherlink.com 1.10,2013-10-21 15:14:00,
2013-10-21 11:29:00,54.8,38.0,30.03,South,174,4.0,9.0,53,0.00,,,0.00,weatherlink.com 1.10,2013-10-21 15:29:00,
2013-10-21 11:44:00,55.9,37.0,30.02,SSW,198,6.0,8.0,49,0.00,,,0.00,weatherlink.com 1.10,2013-10-21 15:44:00,
2013-10-21 11:59:00,55.9,39.0,30.02,South,182,2.0,11.0,53,0.00,,,0.00,weatherlink.com 1.10,2013-10-21 15:59:00,
2013-10-21 12:14:00,56.4,37.0,30.02,WSW,253,6.0,10.0,48,0.00,,,0.00,weatherlink.com 1.10,2013-10-21 16:14:00,
2013-10-21 12:29:00,56.3,37.0,30.01,SSW,198,4.0,13.0,48,0.00,,,0.00,weatherlink.com 1.10,2013-10-21 16:29:00,
2013-10-21 12:44:00,56.9,37.0,30.00,ESE,107,4.0,13.0,48,0.00,,,0.00,weatherlink.com 1.10,2013-10-21 16:44:00,
2013-10-21 12:59:00,57.1,37.0,29.99,ESE,118,5.0,11.0,48,0.00,,,0.00,weatherlink.com 1.10,2013-10-21 16:59:00,
2013-10-21 13:14:00,57.8,37.0,29.98,SW,227,6.0,8.0,46,0.00,,,0.00,weatherlink.com 1.10,2013-10-21 17:14:00,
2013-10-21 13:29:00,57.8,39.0,29.98,South,182,4.0,9.0,49,0.00,,,0.00,weatherlink.com 1.10,2013-10-21 17:29:00,
2013-10-21 13:44:00,58.2,37.0,29.97,South,184,4.0,11.0,46,0.00,,,0.00,weatherlink.com 1.10,2013-10-21 17:44:00,
2013-10-21 13:59:00,58.6,39.0,29.96,SSW,211,6.0,12.0,49,0.00,,,0.00,weatherlink.com 1.10,2013-10-21 17:59:00,
2013-10-21 14:14:00,58.6,38.0,29.96,SSW,208,2.0,11.0,46,0.00,,,0.00,weatherlink.com 1.10,2013-10-21 18:14:00,
2013-10-21 14:29:00,58.8,39.0,29.95,South,189,3.0,9.0,48,0.00,,,0.00,weatherlink.com 1.10,2013-10-21 18:29:00,
2013-10-21 14:44:00,58.5,37.0,29.95,SW,223,6.0,11.0,45,0.00,,,0.00,weatherlink.com 1.10,2013-10-21 18:44:00,
2013-10-21 14:59:00,58.5,38.0,29.95,South,179,4.0,10.0,46,0.00,,,0.00,weatherlink.com 1.10,2013-10-21 18:59:00,
2013-10-21 15:14:00,58.4,38.0,29.95,SW,219,2.0,12.0,47,0.00,,,0.00,weatherlink.com 1.10,2013-10-21 19:14:00,
2013-10-21 15:29:00,58.4,37.0,29.94,SSE,155,5.0,11.0,46,0.00,,,0.00,weatherlink.com 1.10,2013-10-21 19:29:00,
2013-10-21 15:44:00,57.5,37.0,29.94,South,190,6.0,14.0,47,0.00,,,0.00,weatherlink.com 1.10,2013-10-21 19:44:00,
2013-10-21 15:59:00,57.2,38.0,29.94,SSE,162,2.0,11.0,49,0.00,,,0.00,weatherlink.com 1.10,2013-10-21 19:59:00,
2013-10-21 16:14:00,56.6,37.0,29.94,South,184,1.0,9.0,49,0.00,,,0.00,weatherlink.com 1.10,2013-10-21 20:14:00,
2013-10-21 16:29:00,56.5,37.0,29.93,SSW,196,4.0,12.0,48,0.00,,,0.00,weatherlink.com 1.10,2013-10-21 20:29:00,
2013-10-21 16:45:00,56.0,36.0,29.92,South,171,2.0,12.0,47,0.00,,,0.00,weatherlink.com 1.10,2013-10-21 20:45:00,
2013-10-21 17:00:00,55.4,36.0,29.92,South,180,10.0,11.0,48,0.00,,,0.00,weatherlink.com 1.10,2013-10-21 21:00:00,
2013-10-21 17:15:00,54.0,36.0,29.93,SSE,148,4.0,10.0,51,0.00,,,0.00,weatherlink.com 1.10,2013-10-21 21:15:00,
2013-10-21 17:30:00,52.9,35.0,29.93,South,189,3.0,9.0,52,0.00,,,0.00,weatherlink.com 1.10,2013-10-21 21:30:00,
2013-10-21 17:45:00,52.1,36.0,29.93,South,190,1.0,8.0,55,0.00,,,0.00,weatherlink.com 1.10,2013-10-21 21:45:00,
2013-10-21 18:00:00,51.4,36.0,29.93,SSW,197,5.0,11.0,56,0.00,,,0.00,weatherlink.com 1.10,2013-10-21 22:00:00,
2013-10-21 18:15:00,50.2,35.0,29.93,South,175,2.0,10.0,57,0.00,,,0.00,weatherlink.com 1.10,2013-10-21 22:15:00,
2013-10-21 18:30:00,49.4,35.0,29.93,SSE,151,3.0,8.0,58,0.00,,,0.00,weatherlink.com 1.10,2013-10-21 22:30:00,
2013-10-21 18:45:00,49.4,36.0,29.93,South,187,2.0,7.0,60,0.00,,,0.00,weatherlink.com 1.10,2013-10-21 22:45:00,
2013-10-21 19:00:00,49.4,35.0,29.93,SSE,153,1.0,13.0,59,0.00,,,0.00,weatherlink.com 1.10,2013-10-21 23:00:00,
2013-10-21 19:15:00,49.6,35.0,29.93,SSW,200,3.0,12.0,58,0.00,,,0.00,weatherlink.com 1.10,2013-10-21 23:15:00,
2013-10-21 19:30:00,49.6,35.0,29.92,SSW,204,5.0,12.0,57,0.00,,,0.00,weatherlink.com 1.10,2013-10-21 23:30:00,
2013-10-21 19:45:00,50.1,36.0,29.92,SSE,167,3.0,16.0,58,0.00,,,0.00,weatherlink.com 1.10,2013-10-21 23:45:00,
2013-10-21 20:00:00,50.3,36.0,29.91,SW,223,5.0,15.0,58,0.00,,,0.00,weatherlink.com 1.10,2013-10-22 00:00:00,
2013-10-21 20:15:00,50.0,36.0,29.91,South,169,3.0,12.0,58,0.00,,,0.00,weatherlink.com 1.10,2013-10-22 00:15:00,
2013-10-21 20:30:00,49.5,36.0,29.91,SSE,162,2.0,15.0,60,0.00,,,0.00,weatherlink.com 1.10,2013-10-22 00:30:00,
2013-10-21 20:45:00,49.7,36.0,29.91,SSW,192,5.0,15.0,59,0.00,,,0.00,weatherlink.com 1.10,2013-10-22 00:45:00,
2013-10-21 21:00:00,49.6,36.0,29.90,SSW,192,8.0,19.0,60,0.00,,,0.00,weatherlink.com 1.10,2013-10-22 01:00:00,
2013-10-21 21:15:00,48.9,36.0,29.90,SSW,195,6.0,15.0,62,0.00,,,0.00,weatherlink.com 1.10,2013-10-22 01:15:00,
2013-10-21 21:30:00,48.5,36.0,29.90,South,188,4.0,14.0,63,0.00,,,0.00,weatherlink.com 1.10,2013-10-22 01:30:00,
2013-10-21 21:45:00,47.6,36.0,29.91,SSW,210,5.0,11.0,65,0.00,,,0.00,weatherlink.com 1.10,2013-10-22 01:45:00,
2013-10-21 22:00:00,48.7,36.0,29.90,SSW,205,6.0,12.0,63,0.00,,,0.00,weatherlink.com 1.10,2013-10-22 02:00:00,
2013-10-21 22:16:00,48.2,37.0,29.89,WSW,237,3.0,13.0,65,0.00,,,0.00,weatherlink.com 1.10,2013-10-22 02:16:00,
2013-10-21 22:31:00,47.6,37.0,29.89,SSW,206,7.0,14.0,66,0.00,,,0.00,weatherlink.com 1.10,2013-10-22 02:31:00,
2013-10-21 22:46:00,47.7,37.0,29.89,South,173,5.0,16.0,66,0.00,,,0.00,weatherlink.com 1.10,2013-10-22 02:46:00,
2013-10-21 23:01:00,47.6,37.0,29.88,ESE,119,2.0,12.0,66,0.00,,,0.00,weatherlink.com 1.10,2013-10-22 03:01:00,
2013-10-21 23:16:00,47.9,37.0,29.87,SSW,198,8.0,15.0,66,0.00,,,0.00,weatherlink.com 1.10,2013-10-22 03:16:00,
2013-10-21 23:31:00,47.8,37.0,29.86,SSW,204,5.0,22.0,66,0.00,,,0.00,weatherlink.com 1.10,2013-10-22 03:31:00,
2013-10-21 23:46:00,47.0,37.0,29.86,South,178,8.0,17.0,68,0.00,,,0.00,weatherlink.com 1.10,2013-10-22 03:46:00,